sensor_id;sensor_type;location;lat;lon;timestamp;P1;durP1;ratioP1;P2;durP2;ratioP2
22460;SDS011;11397;48.410;11.468;2023-11-19T00:01:26;1.02;;;1.02;;
22460;SDS011;11397;48.410;11.468;2023-11-19T00:06:28;1.30;;;1.30;;
22460;SDS011;11397;48.410;11.468;2023-11-19T00:11:29;1.20;;;1.20;;
22460;SDS011;11397;48.410;11.468;2023-11-19T00:16:32;1.00;;;1.00;;
22460;SDS011;11397;48.410;11.468;2023-11-19T00:21:34;1.20;;;1.20;;
22460;SDS011;11397;48.410;11.468;2023-11-19T00:26:36;1.25;;;1.25;;
22460;SDS011;11397;48.410;11.468;2023-11-19T00:31:40;1.30;;;1.30;;
22460;SDS011;11397;48.410;11.468;2023-11-19T00:36:42;1.17;;;1.17;;
22460;SDS011;11397;48.410;11.468;2023-11-19T00:41:45;1.25;;;1.25;;
22460;SDS011;11397;48.410;11.468;2023-11-19T00:46:48;1.10;;;1.10;;
22460;SDS011;11397;48.410;11.468;2023-11-19T00:51:50;1.00;;;1.00;;
22460;SDS011;11397;48.410;11.468;2023-11-19T00:56:51;1.17;;;1.17;;
22460;SDS011;11397;48.410;11.468;2023-11-19T01:01:54;1.10;;;1.10;;
22460;SDS011;11397;48.410;11.468;2023-11-19T01:06:56;1.30;;;1.30;;
22460;SDS011;11397;48.410;11.468;2023-11-19T01:11:58;1.40;;;1.40;;
22460;SDS011;11397;48.410;11.468;2023-11-19T01:17:02;1.10;;;1.10;;
22460;SDS011;11397;48.410;11.468;2023-11-19T01:22:05;1.05;;;1.05;;
22460;SDS011;11397;48.410;11.468;2023-11-19T01:27:07;1.10;;;1.10;;
22460;SDS011;11397;48.410;11.468;2023-11-19T01:32:11;1.25;;;1.25;;
22460;SDS011;11397;48.410;11.468;2023-11-19T01:37:13;1.20;;;1.20;;
22460;SDS011;11397;48.410;11.468;2023-11-19T01:42:15;1.33;;;1.33;;
22460;SDS011;11397;48.410;11.468;2023-11-19T01:47:18;1.38;;;1.38;;
22460;SDS011;11397;48.410;11.468;2023-11-19T01:52:20;1.40;;;1.40;;
22460;SDS011;11397;48.410;11.468;2023-11-19T01:57:23;1.05;;;1.05;;
22460;SDS011;11397;48.410;11.468;2023-11-19T02:02:27;1.30;;;1.30;;
22460;SDS011;11397;48.410;11.468;2023-11-19T02:07:28;1.20;;;1.20;;
22460;SDS011;11397;48.410;11.468;2023-11-19T02:12:31;1.10;;;1.10;;
22460;SDS011;11397;48.410;11.468;2023-11-19T02:17:35;1.27;;;1.27;;
22460;SDS011;11397;48.410;11.468;2023-11-19T02:22:38;1.27;;;1.27;;
22460;SDS011;11397;48.410;11.468;2023-11-19T02:27:51;1.50;;;1.50;;
22460;SDS011;11397;48.410;11.468;2023-11-19T02:32:56;1.48;;;1.48;;
22460;SDS011;11397;48.410;11.468;2023-11-19T02:37:59;1.40;;;1.40;;
22460;SDS011;11397;48.410;11.468;2023-11-19T02:43:02;1.40;;;1.40;;
22460;SDS011;11397;48.410;11.468;2023-11-19T02:48:05;1.40;;;1.40;;
22460;SDS011;11397;48.410;11.468;2023-11-19T02:53:08;1.30;;;1.30;;
22460;SDS011;11397;48.410;11.468;2023-11-19T02:58:11;1.45;;;1.45;;
22460;SDS011;11397;48.410;11.468;2023-11-19T03:03:20;1.55;;;1.55;;
22460;SDS011;11397;48.410;11.468;2023-11-19T03:08:23;1.40;;;1.40;;
22460;SDS011;11397;48.410;11.468;2023-11-19T03:13:26;1.45;;;1.45;;
22460;SDS011;11397;48.410;11.468;2023-11-19T03:18:28;1.40;;;1.40;;
22460;SDS011;11397;48.410;11.468;2023-11-19T03:23:30;1.52;;;1.52;;
22460;SDS011;11397;48.410;11.468;2023-11-19T03:28:33;1.40;;;1.40;;
22460;SDS011;11397;48.410;11.468;2023-11-19T03:33:35;1.65;;;1.65;;
22460;SDS011;11397;48.410;11.468;2023-11-19T03:38:38;1.67;;;1.67;;
22460;SDS011;11397;48.410;11.468;2023-11-19T03:43:44;1.40;;;1.40;;
22460;SDS011;11397;48.410;11.468;2023-11-19T03:48:46;1.50;;;1.50;;
22460;SDS011;11397;48.410;11.468;2023-11-19T03:53:48;1.27;;;1.27;;
22460;SDS011;11397;48.410;11.468;2023-11-19T03:58:51;1.60;;;1.60;;
22460;SDS011;11397;48.410;11.468;2023-11-19T04:03:53;1.80;;;1.80;;
22460;SDS011;11397;48.410;11.468;2023-11-19T04:08:56;1.60;;;1.60;;
22460;SDS011;11397;48.410;11.468;2023-11-19T04:13:59;1.73;;;1.73;;
22460;SDS011;11397;48.410;11.468;2023-11-19T04:19:00;1.60;;;1.60;;
22460;SDS011;11397;48.410;11.468;2023-11-19T04:24:02;1.70;;;1.70;;
22460;SDS011;11397;48.410;11.468;2023-11-19T04:29:06;1.67;;;1.67;;
22460;SDS011;11397;48.410;11.468;2023-11-19T04:34:09;1.50;;;1.50;;
22460;SDS011;11397;48.410;11.468;2023-11-19T04:39:11;1.63;;;1.63;;
22460;SDS011;11397;48.410;11.468;2023-11-19T04:44:16;1.63;;;1.63;;
22460;SDS011;11397;48.410;11.468;2023-11-19T04:49:18;1.70;;;1.70;;
22460;SDS011;11397;48.410;11.468;2023-11-19T04:54:20;1.63;;;1.63;;
22460;SDS011;11397;48.410;11.468;2023-11-19T04:59:26;1.80;;;1.80;;
22460;SDS011;11397;48.410;11.468;2023-11-19T05:04:28;1.70;;;1.70;;
22460;SDS011;11397;48.410;11.468;2023-11-19T05:09:30;1.70;;;1.70;;
22460;SDS011;11397;48.410;11.468;2023-11-19T05:14:34;1.90;;;1.90;;
22460;SDS011;11397;48.410;11.468;2023-11-19T05:19:36;1.98;;;1.98;;
22460;SDS011;11397;48.410;11.468;2023-11-19T05:24:37;1.83;;;1.83;;
22460;SDS011;11397;48.410;11.468;2023-11-19T05:29:41;2.03;;;2.03;;
22460;SDS011;11397;48.410;11.468;2023-11-19T05:34:44;2.00;;;2.00;;
22460;SDS011;11397;48.410;11.468;2023-11-19T05:39:45;2.10;;;2.10;;
22460;SDS011;11397;48.410;11.468;2023-11-19T05:44:49;1.80;;;1.80;;
22460;SDS011;11397;48.410;11.468;2023-11-19T05:49:50;2.03;;;2.03;;
22460;SDS011;11397;48.410;11.468;2023-11-19T05:54:52;1.90;;;1.90;;
22460;SDS011;11397;48.410;11.468;2023-11-19T05:59:55;1.65;;;1.65;;
22460;SDS011;11397;48.410;11.468;2023-11-19T06:04:57;1.95;;;1.95;;
22460;SDS011;11397;48.410;11.468;2023-11-19T06:09:59;1.92;;;1.92;;
22460;SDS011;11397;48.410;11.468;2023-11-19T06:15:02;1.95;;;1.95;;
22460;SDS011;11397;48.410;11.468;2023-11-19T06:20:04;1.85;;;1.85;;
22460;SDS011;11397;48.410;11.468;2023-11-19T06:25:07;1.70;;;1.70;;
22460;SDS011;11397;48.410;11.468;2023-11-19T06:30:11;1.70;;;1.70;;
22460;SDS011;11397;48.410;11.468;2023-11-19T06:35:13;1.77;;;1.77;;
22460;SDS011;11397;48.410;11.468;2023-11-19T06:40:15;1.60;;;1.60;;
22460;SDS011;11397;48.410;11.468;2023-11-19T06:45:19;1.58;;;1.58;;
22460;SDS011;11397;48.410;11.468;2023-11-19T06:50:21;1.67;;;1.67;;
22460;SDS011;11397;48.410;11.468;2023-11-19T06:55:24;1.40;;;1.40;;
22460;SDS011;11397;48.410;11.468;2023-11-19T07:00:27;1.50;;;1.50;;
22460;SDS011;11397;48.410;11.468;2023-11-19T07:05:29;1.60;;;1.60;;
22460;SDS011;11397;48.410;11.468;2023-11-19T07:10:31;1.50;;;1.50;;
22460;SDS011;11397;48.410;11.468;2023-11-19T07:15:35;1.50;;;1.50;;
22460;SDS011;11397;48.410;11.468;2023-11-19T07:20:37;1.48;;;1.48;;
22460;SDS011;11397;48.410;11.468;2023-11-19T07:25:40;1.40;;;1.40;;
22460;SDS011;11397;48.410;11.468;2023-11-19T07:30:43;1.23;;;1.23;;
22460;SDS011;11397;48.410;11.468;2023-11-19T07:35:45;1.25;;;1.25;;
22460;SDS011;11397;48.410;11.468;2023-11-19T07:40:46;1.60;;;1.60;;
22460;SDS011;11397;48.410;11.468;2023-11-19T07:45:50;1.58;;;1.58;;
22460;SDS011;11397;48.410;11.468;2023-11-19T07:50:52;1.60;;;1.60;;
22460;SDS011;11397;48.410;11.468;2023-11-19T07:55:53;1.38;;;1.38;;
22460;SDS011;11397;48.410;11.468;2023-11-19T08:00:57;1.52;;;1.52;;
22460;SDS011;11397;48.410;11.468;2023-11-19T08:05:58;1.40;;;1.40;;
22460;SDS011;11397;48.410;11.468;2023-11-19T08:11:00;1.50;;;1.50;;
22460;SDS011;11397;48.410;11.468;2023-11-19T08:16:04;1.52;;;1.52;;
22460;SDS011;11397;48.410;11.468;2023-11-19T08:21:06;1.60;;;1.60;;
22460;SDS011;11397;48.410;11.468;2023-11-19T08:26:09;1.80;;;1.80;;
22460;SDS011;11397;48.410;11.468;2023-11-19T08:31:12;1.65;;;1.65;;
22460;SDS011;11397;48.410;11.468;2023-11-19T08:36:17;1.50;;;1.50;;
22460;SDS011;11397;48.410;11.468;2023-11-19T08:41:18;1.70;;;1.70;;
22460;SDS011;11397;48.410;11.468;2023-11-19T08:46:22;1.80;;;1.80;;
22460;SDS011;11397;48.410;11.468;2023-11-19T08:51:24;1.58;;;1.58;;
22460;SDS011;11397;48.410;11.468;2023-11-19T08:56:26;1.80;;;1.80;;
22460;SDS011;11397;48.410;11.468;2023-11-19T09:01:33;1.80;;;1.80;;
22460;SDS011;11397;48.410;11.468;2023-11-19T09:06:38;1.80;;;1.80;;
22460;SDS011;11397;48.410;11.468;2023-11-19T09:11:40;1.80;;;1.80;;
22460;SDS011;11397;48.410;11.468;2023-11-19T09:16:44;1.80;;;1.80;;
22460;SDS011;11397;48.410;11.468;2023-11-19T09:21:46;1.70;;;1.70;;
22460;SDS011;11397;48.410;11.468;2023-11-19T09:26:49;1.83;;;1.83;;
22460;SDS011;11397;48.410;11.468;2023-11-19T09:31:52;1.90;;;1.90;;
22460;SDS011;11397;48.410;11.468;2023-11-19T09:36:54;1.90;;;1.90;;
22460;SDS011;11397;48.410;11.468;2023-11-19T09:41:56;1.70;;;1.70;;
22460;SDS011;11397;48.410;11.468;2023-11-19T09:46:59;1.90;;;1.90;;
22460;SDS011;11397;48.410;11.468;2023-11-19T09:52:02;1.80;;;1.80;;
22460;SDS011;11397;48.410;11.468;2023-11-19T09:57:04;1.70;;;1.70;;
22460;SDS011;11397;48.410;11.468;2023-11-19T10:02:07;2.20;;;2.20;;
22460;SDS011;11397;48.410;11.468;2023-11-19T10:07:09;1.75;;;1.75;;
22460;SDS011;11397;48.410;11.468;2023-11-19T10:12:11;1.88;;;1.88;;
22460;SDS011;11397;48.410;11.468;2023-11-19T10:17:14;2.00;;;2.00;;
22460;SDS011;11397;48.410;11.468;2023-11-19T10:22:15;1.80;;;1.80;;
22460;SDS011;11397;48.410;11.468;2023-11-19T10:27:18;1.90;;;1.90;;
22460;SDS011;11397;48.410;11.468;2023-11-19T10:32:21;1.70;;;1.70;;
22460;SDS011;11397;48.410;11.468;2023-11-19T10:37:29;1.80;;;1.80;;
22460;SDS011;11397;48.410;11.468;2023-11-19T10:42:32;2.05;;;2.05;;
22460;SDS011;11397;48.410;11.468;2023-11-19T10:47:35;2.00;;;2.00;;
22460;SDS011;11397;48.410;11.468;2023-11-19T10:52:37;2.00;;;2.00;;
22460;SDS011;11397;48.410;11.468;2023-11-19T10:57:39;2.20;;;2.20;;
22460;SDS011;11397;48.410;11.468;2023-11-19T11:02:47;2.00;;;2.00;;
22460;SDS011;11397;48.410;11.468;2023-11-19T11:07:51;2.10;;;2.10;;
22460;SDS011;11397;48.410;11.468;2023-11-19T11:12:53;2.20;;;2.20;;
22460;SDS011;11397;48.410;11.468;2023-11-19T11:18:01;2.10;;;2.10;;
22460;SDS011;11397;48.410;11.468;2023-11-19T11:23:16;2.00;;;2.00;;
22460;SDS011;11397;48.410;11.468;2023-11-19T11:28:24;1.80;;;1.80;;
22460;SDS011;11397;48.410;11.468;2023-11-19T11:33:32;1.70;;;1.70;;
22460;SDS011;11397;48.410;11.468;2023-11-19T11:38:36;2.08;;;2.08;;
22460;SDS011;11397;48.410;11.468;2023-11-19T11:43:45;2.10;;;2.10;;
22460;SDS011;11397;48.410;11.468;2023-11-19T11:48:49;1.98;;;1.98;;
22460;SDS011;11397;48.410;11.468;2023-11-19T11:53:51;2.00;;;2.00;;
22460;SDS011;11397;48.410;11.468;2023-11-19T11:58:54;2.13;;;2.13;;
22460;SDS011;11397;48.410;11.468;2023-11-19T12:03:57;2.10;;;2.10;;
22460;SDS011;11397;48.410;11.468;2023-11-19T12:09:00;2.03;;;2.03;;
22460;SDS011;11397;48.410;11.468;2023-11-19T12:14:03;2.10;;;2.10;;
22460;SDS011;11397;48.410;11.468;2023-11-19T12:19:08;2.30;;;2.30;;
22460;SDS011;11397;48.410;11.468;2023-11-19T12:24:10;2.30;;;2.30;;
22460;SDS011;11397;48.410;11.468;2023-11-19T12:29:12;2.10;;;2.10;;
22460;SDS011;11397;48.410;11.468;2023-11-19T12:34:15;2.03;;;2.03;;
22460;SDS011;11397;48.410;11.468;2023-11-19T12:39:17;2.05;;;2.05;;
22460;SDS011;11397;48.410;11.468;2023-11-19T12:44:20;1.73;;;1.73;;
22460;SDS011;11397;48.410;11.468;2023-11-19T12:49:23;2.15;;;2.15;;
22460;SDS011;11397;48.410;11.468;2023-11-19T12:54:32;2.00;;;2.00;;
22460;SDS011;11397;48.410;11.468;2023-11-19T12:59:35;2.05;;;2.05;;
22460;SDS011;11397;48.410;11.468;2023-11-19T13:04:38;2.20;;;2.20;;
22460;SDS011;11397;48.410;11.468;2023-11-19T13:09:44;2.10;;;2.10;;
22460;SDS011;11397;48.410;11.468;2023-11-19T13:14:45;2.00;;;2.00;;
22460;SDS011;11397;48.410;11.468;2023-11-19T13:19:49;2.10;;;2.10;;
22460;SDS011;11397;48.410;11.468;2023-11-19T13:24:51;1.98;;;1.98;;
22460;SDS011;11397;48.410;11.468;2023-11-19T13:29:53;2.17;;;2.17;;
22460;SDS011;11397;48.410;11.468;2023-11-19T13:34:56;1.90;;;1.90;;
22460;SDS011;11397;48.410;11.468;2023-11-19T13:39:58;2.00;;;2.00;;
22460;SDS011;11397;48.410;11.468;2023-11-19T13:45:00;1.85;;;1.85;;
22460;SDS011;11397;48.410;11.468;2023-11-19T13:50:03;2.08;;;2.08;;
22460;SDS011;11397;48.410;11.468;2023-11-19T13:55:07;2.13;;;2.13;;
22460;SDS011;11397;48.410;11.468;2023-11-19T14:00:09;1.85;;;1.85;;
22460;SDS011;11397;48.410;11.468;2023-11-19T14:05:14;2.00;;;2.00;;
22460;SDS011;11397;48.410;11.468;2023-11-19T14:10:18;2.00;;;2.00;;
22460;SDS011;11397;48.410;11.468;2023-11-19T14:15:19;2.17;;;2.17;;
22460;SDS011;11397;48.410;11.468;2023-11-19T14:20:23;1.85;;;1.85;;
22460;SDS011;11397;48.410;11.468;2023-11-19T14:25:26;1.80;;;1.80;;
22460;SDS011;11397;48.410;11.468;2023-11-19T14:30:27;2.05;;;2.05;;
22460;SDS011;11397;48.410;11.468;2023-11-19T14:35:31;2.20;;;2.20;;
22460;SDS011;11397;48.410;11.468;2023-11-19T14:40:34;1.95;;;1.95;;
22460;SDS011;11397;48.410;11.468;2023-11-19T14:45:36;1.70;;;1.70;;
22460;SDS011;11397;48.410;11.468;2023-11-19T14:50:39;1.90;;;1.90;;
22460;SDS011;11397;48.410;11.468;2023-11-19T14:55:41;2.08;;;2.08;;
22460;SDS011;11397;48.410;11.468;2023-11-19T15:00:42;1.90;;;1.90;;
22460;SDS011;11397;48.410;11.468;2023-11-19T15:05:49;2.05;;;2.05;;
22460;SDS011;11397;48.410;11.468;2023-11-19T15:10:51;1.98;;;1.98;;
22460;SDS011;11397;48.410;11.468;2023-11-19T15:15:53;1.90;;;1.90;;
22460;SDS011;11397;48.410;11.468;2023-11-19T15:20:57;1.95;;;1.95;;
22460;SDS011;11397;48.410;11.468;2023-11-19T15:25:59;2.00;;;2.00;;
22460;SDS011;11397;48.410;11.468;2023-11-19T15:31:00;1.55;;;1.55;;
22460;SDS011;11397;48.410;11.468;2023-11-19T15:36:04;1.95;;;1.95;;
22460;SDS011;11397;48.410;11.468;2023-11-19T15:41:08;1.90;;;1.90;;
22460;SDS011;11397;48.410;11.468;2023-11-19T15:46:12;1.77;;;1.77;;
22460;SDS011;11397;48.410;11.468;2023-11-19T15:51:18;1.83;;;1.83;;
22460;SDS011;11397;48.410;11.468;2023-11-19T15:56:19;1.98;;;1.98;;
22460;SDS011;11397;48.410;11.468;2023-11-19T16:01:21;1.92;;;1.92;;
22460;SDS011;11397;48.410;11.468;2023-11-19T16:06:24;1.70;;;1.70;;
22460;SDS011;11397;48.410;11.468;2023-11-19T16:11:26;2.00;;;2.00;;
22460;SDS011;11397;48.410;11.468;2023-11-19T16:16:28;2.10;;;2.10;;
22460;SDS011;11397;48.410;11.468;2023-11-19T16:21:31;1.92;;;1.92;;
22460;SDS011;11397;48.410;11.468;2023-11-19T16:26:33;2.00;;;2.00;;
22460;SDS011;11397;48.410;11.468;2023-11-19T16:31:37;1.85;;;1.85;;
22460;SDS011;11397;48.410;11.468;2023-11-19T16:36:40;2.08;;;2.08;;
22460;SDS011;11397;48.410;11.468;2023-11-19T16:41:44;2.20;;;2.20;;
22460;SDS011;11397;48.410;11.468;2023-11-19T16:46:46;2.00;;;2.00;;
22460;SDS011;11397;48.410;11.468;2023-11-19T16:51:50;2.30;;;2.30;;
22460;SDS011;11397;48.410;11.468;2023-11-19T16:56:51;2.00;;;2.00;;
22460;SDS011;11397;48.410;11.468;2023-11-19T17:01:53;2.00;;;2.00;;
22460;SDS011;11397;48.410;11.468;2023-11-19T17:06:56;1.90;;;1.90;;
22460;SDS011;11397;48.410;11.468;2023-11-19T17:11:58;2.20;;;2.20;;
22460;SDS011;11397;48.410;11.468;2023-11-19T17:17:00;2.20;;;2.20;;
22460;SDS011;11397;48.410;11.468;2023-11-19T17:22:05;1.85;;;1.85;;
22460;SDS011;11397;48.410;11.468;2023-11-19T17:27:07;1.88;;;1.88;;
22460;SDS011;11397;48.410;11.468;2023-11-19T17:32:09;2.00;;;2.00;;
22460;SDS011;11397;48.410;11.468;2023-11-19T17:37:12;1.95;;;1.95;;
22460;SDS011;11397;48.410;11.468;2023-11-19T17:42:13;2.00;;;2.00;;
22460;SDS011;11397;48.410;11.468;2023-11-19T17:47:15;2.03;;;2.03;;
22460;SDS011;11397;48.410;11.468;2023-11-19T17:52:18;2.17;;;2.17;;
22460;SDS011;11397;48.410;11.468;2023-11-19T17:57:21;1.80;;;1.80;;
22460;SDS011;11397;48.410;11.468;2023-11-19T18:02:22;2.10;;;2.10;;
22460;SDS011;11397;48.410;11.468;2023-11-19T18:07:26;2.15;;;2.15;;
22460;SDS011;11397;48.410;11.468;2023-11-19T18:12:28;2.08;;;2.08;;
22460;SDS011;11397;48.410;11.468;2023-11-19T18:17:30;1.92;;;1.92;;
22460;SDS011;11397;48.410;11.468;2023-11-19T18:22:33;2.10;;;2.10;;
22460;SDS011;11397;48.410;11.468;2023-11-19T18:27:35;2.20;;;2.20;;
22460;SDS011;11397;48.410;11.468;2023-11-19T18:32:37;2.25;;;2.25;;
22460;SDS011;11397;48.410;11.468;2023-11-19T18:37:40;2.05;;;2.05;;
22460;SDS011;11397;48.410;11.468;2023-11-19T18:42:42;1.95;;;1.95;;
22460;SDS011;11397;48.410;11.468;2023-11-19T18:47:44;2.42;;;2.35;;
22460;SDS011;11397;48.410;11.468;2023-11-19T18:52:47;2.20;;;2.20;;
22460;SDS011;11397;48.410;11.468;2023-11-19T18:57:51;2.03;;;2.03;;
22460;SDS011;11397;48.410;11.468;2023-11-19T19:02:53;2.20;;;2.20;;
22460;SDS011;11397;48.410;11.468;2023-11-19T19:07:56;1.70;;;1.70;;
22460;SDS011;11397;48.410;11.468;2023-11-19T19:12:58;2.22;;;2.22;;
22460;SDS011;11397;48.410;11.468;2023-11-19T19:18:00;2.10;;;2.10;;
22460;SDS011;11397;48.410;11.468;2023-11-19T19:23:03;1.90;;;1.90;;
22460;SDS011;11397;48.410;11.468;2023-11-19T19:28:04;1.90;;;1.90;;
22460;SDS011;11397;48.410;11.468;2023-11-19T19:33:07;2.40;;;2.40;;
22460;SDS011;11397;48.410;11.468;2023-11-19T19:38:10;2.30;;;2.30;;
22460;SDS011;11397;48.410;11.468;2023-11-19T19:43:12;2.20;;;2.20;;
22460;SDS011;11397;48.410;11.468;2023-11-19T19:48:14;2.00;;;2.00;;
22460;SDS011;11397;48.410;11.468;2023-11-19T19:53:18;2.05;;;2.05;;
22460;SDS011;11397;48.410;11.468;2023-11-19T19:58:19;2.13;;;2.13;;
22460;SDS011;11397;48.410;11.468;2023-11-19T20:03:22;2.10;;;2.10;;
22460;SDS011;11397;48.410;11.468;2023-11-19T20:08:25;2.35;;;2.35;;
22460;SDS011;11397;48.410;11.468;2023-11-19T20:13:28;2.00;;;2.00;;
22460;SDS011;11397;48.410;11.468;2023-11-19T20:18:29;2.10;;;2.10;;
22460;SDS011;11397;48.410;11.468;2023-11-19T20:23:33;1.77;;;1.77;;
22460;SDS011;11397;48.410;11.468;2023-11-19T20:28:34;2.20;;;2.20;;
22460;SDS011;11397;48.410;11.468;2023-11-19T20:33:37;2.00;;;2.00;;
22460;SDS011;11397;48.410;11.468;2023-11-19T20:38:40;1.85;;;1.85;;
22460;SDS011;11397;48.410;11.468;2023-11-19T20:43:42;1.90;;;1.90;;
22460;SDS011;11397;48.410;11.468;2023-11-19T20:48:44;1.88;;;1.88;;
22460;SDS011;11397;48.410;11.468;2023-11-19T20:53:47;2.00;;;2.00;;
22460;SDS011;11397;48.410;11.468;2023-11-19T20:58:49;1.92;;;1.92;;
22460;SDS011;11397;48.410;11.468;2023-11-19T21:03:50;2.22;;;2.22;;
22460;SDS011;11397;48.410;11.468;2023-11-19T21:08:53;2.03;;;2.03;;
22460;SDS011;11397;48.410;11.468;2023-11-19T21:13:55;2.03;;;2.03;;
22460;SDS011;11397;48.410;11.468;2023-11-19T21:18:56;1.90;;;1.90;;
22460;SDS011;11397;48.410;11.468;2023-11-19T21:23:59;1.83;;;1.83;;
22460;SDS011;11397;48.410;11.468;2023-11-19T21:29:01;1.90;;;1.90;;
22460;SDS011;11397;48.410;11.468;2023-11-19T21:34:03;2.08;;;2.08;;
22460;SDS011;11397;48.410;11.468;2023-11-19T21:39:07;2.13;;;2.13;;
22460;SDS011;11397;48.410;11.468;2023-11-19T21:44:09;1.85;;;1.85;;
22460;SDS011;11397;48.410;11.468;2023-11-19T21:49:11;2.22;;;2.22;;
22460;SDS011;11397;48.410;11.468;2023-11-19T21:54:14;1.73;;;1.73;;
22460;SDS011;11397;48.410;11.468;2023-11-19T21:59:16;2.17;;;2.17;;
22460;SDS011;11397;48.410;11.468;2023-11-19T22:04:17;2.10;;;2.10;;
22460;SDS011;11397;48.410;11.468;2023-11-19T22:09:20;2.00;;;2.00;;
22460;SDS011;11397;48.410;11.468;2023-11-19T22:14:22;2.05;;;2.05;;
22460;SDS011;11397;48.410;11.468;2023-11-19T22:19:24;2.00;;;2.00;;
22460;SDS011;11397;48.410;11.468;2023-11-19T22:24:27;1.90;;;1.90;;
22460;SDS011;11397;48.410;11.468;2023-11-19T22:29:29;2.00;;;2.00;;
22460;SDS011;11397;48.410;11.468;2023-11-19T22:34:30;1.95;;;1.95;;
22460;SDS011;11397;48.410;11.468;2023-11-19T22:39:34;1.80;;;1.80;;
22460;SDS011;11397;48.410;11.468;2023-11-19T22:44:36;2.10;;;2.10;;
22460;SDS011;11397;48.410;11.468;2023-11-19T22:49:38;1.90;;;1.90;;
22460;SDS011;11397;48.410;11.468;2023-11-19T22:54:41;2.25;;;2.25;;
22460;SDS011;11397;48.410;11.468;2023-11-19T22:59:43;1.98;;;1.98;;
22460;SDS011;11397;48.410;11.468;2023-11-19T23:04:45;1.98;;;1.98;;
22460;SDS011;11397;48.410;11.468;2023-11-19T23:09:48;2.00;;;2.00;;
22460;SDS011;11397;48.410;11.468;2023-11-19T23:14:50;2.10;;;2.10;;
22460;SDS011;11397;48.410;11.468;2023-11-19T23:19:52;2.03;;;2.03;;
22460;SDS011;11397;48.410;11.468;2023-11-19T23:24:55;1.98;;;1.98;;
22460;SDS011;11397;48.410;11.468;2023-11-19T23:29:57;1.98;;;1.98;;
22460;SDS011;11397;48.410;11.468;2023-11-19T23:34:59;2.10;;;2.10;;
22460;SDS011;11397;48.410;11.468;2023-11-19T23:40:02;2.10;;;2.10;;
22460;SDS011;11397;48.410;11.468;2023-11-19T23:45:06;1.80;;;1.80;;
22460;SDS011;11397;48.410;11.468;2023-11-19T23:50:08;1.58;;;1.58;;
22460;SDS011;11397;48.410;11.468;2023-11-19T23:55:12;1.95;;;1.95;;
